createdAt,value
2019-05-18T00:01:51.843Z,100419.95
2019-05-18T00:04:22.439Z,100422.06
2019-05-18T00:06:52.990Z,100422.11
2019-05-18T00:09:23.514Z,100422.50
2019-05-18T00:11:54.102Z,100419.94
2019-05-18T00:14:24.739Z,100422.59
2019-05-18T00:16:55.319Z,100419.42
2019-05-18T00:19:25.989Z,100416.05
2019-05-18T00:21:56.484Z,100420.98
2019-05-18T00:24:27.015Z,100416.77
2019-05-18T00:26:57.517Z,100420.41
2019-05-18T00:29:27.988Z,100414.12
2019-05-18T00:31:58.648Z,100414.22
2019-05-18T00:34:29.274Z,100415.11
2019-05-18T00:36:59.824Z,100417.44
2019-05-18T00:39:30.379Z,100411.91
2019-05-18T00:42:00.955Z,100416.25
2019-05-18T00:44:31.470Z,100412.28
2019-05-18T00:47:02.029Z,100412.47
2019-05-18T00:49:32.633Z,100411.90
2019-05-18T00:52:03.152Z,100409.49
2019-05-18T00:54:33.753Z,100416.82
2019-05-18T00:57:04.283Z,100410.69
2019-05-18T00:59:34.853Z,100413.98
2019-05-18T01:02:05.409Z,100410.30
2019-05-18T01:04:35.961Z,100407.89
2019-05-18T01:07:06.805Z,100403.88
2019-05-18T01:09:37.566Z,100402.59
2019-05-18T01:12:08.136Z,100401.94
2019-05-18T01:14:38.610Z,100406.05
2019-05-18T01:17:09.451Z,100408.55
2019-05-18T01:19:40.831Z,100403.45
2019-05-18T01:22:11.356Z,100398.42
2019-05-18T01:24:41.907Z,100405.71
2019-05-18T01:27:12.512Z,100398.62
2019-05-18T01:29:43.046Z,100393.52
2019-05-18T01:32:13.749Z,100397.48
2019-05-18T01:34:44.410Z,100400.18
2019-05-18T01:37:19.297Z,100394.50
2019-05-18T01:39:49.828Z,100394.75
2019-05-18T01:42:20.344Z,100393.28
2019-05-18T01:44:50.871Z,100397.58
2019-05-18T01:47:21.870Z,100386.34
2019-05-18T01:49:52.398Z,100383.45
2019-05-18T01:52:22.944Z,100382.47
2019-05-18T01:54:53.456Z,100375.59
2019-05-18T01:57:24.109Z,100375.66
2019-05-18T01:59:54.595Z,100374.98
2019-05-18T02:02:25.128Z,100379.10
2019-05-18T02:04:55.658Z,100381.14
2019-05-18T02:07:26.123Z,100382.70
2019-05-18T02:09:56.643Z,100383.73
2019-05-18T02:12:27.116Z,100382.80
2019-05-18T02:14:57.642Z,100383.53
2019-05-18T02:17:28.177Z,100382.59
2019-05-18T02:19:58.597Z,100377.78
2019-05-18T02:22:29.116Z,100380.91
2019-05-18T02:24:59.627Z,100376.84
2019-05-18T02:27:30.104Z,100382.80
2019-05-18T02:30:00.618Z,100383.36
2019-05-18T02:32:31.163Z,100381.89
2019-05-18T02:35:01.564Z,100376.73
2019-05-18T02:37:32.091Z,100373.91
2019-05-18T02:40:02.617Z,100381.22
2019-05-18T02:42:33.355Z,100374.48
2019-05-18T02:45:04.091Z,100380.47
2019-05-18T02:47:34.636Z,100379.10
2019-05-18T02:50:05.682Z,100373.66
2019-05-18T02:52:36.168Z,100374.00
2019-05-18T02:55:07.722Z,100369.98
2019-05-18T02:57:38.254Z,100370.73
2019-05-18T03:00:10.292Z,100370.78
2019-05-18T03:02:40.784Z,100375.22
2019-05-18T03:05:11.602Z,100369.50
2019-05-18T03:07:42.142Z,100365.72
2019-05-18T03:10:12.840Z,100366.71
2019-05-18T03:12:43.691Z,100362.22
2019-05-18T03:15:15.124Z,100360.05
2019-05-18T03:17:45.658Z,100360.05
2019-05-18T03:20:16.803Z,100362.05
2019-05-18T03:22:47.360Z,100361.97
2019-05-18T03:25:18.830Z,100362.72
2019-05-18T03:27:49.404Z,100361.61
2019-05-18T03:30:21.919Z,100359.37
2019-05-18T03:32:52.555Z,100358.72
2019-05-18T03:35:23.270Z,100358.17
2019-05-18T03:37:53.906Z,100357.83
2019-05-18T03:40:24.413Z,100359.88
2019-05-18T04:09:52.338Z,100359.77
2019-05-18T04:12:22.977Z,100352.58
2019-05-18T04:14:53.590Z,100360.42
2019-05-18T04:17:24.346Z,100355.39
2019-05-18T04:19:54.883Z,100353.69
2019-05-18T04:22:25.471Z,100354.17
2019-05-18T04:24:56.246Z,100352.74
2019-05-18T04:27:26.917Z,100358.70
2019-05-18T04:29:57.589Z,100356.20
2019-05-18T04:32:28.220Z,100359.22
2019-05-18T04:34:58.880Z,100354.77
2019-05-18T04:37:29.510Z,100357.78
2019-05-18T04:40:00.399Z,100363.20
2019-05-18T04:42:31.029Z,100357.09
2019-05-18T04:45:01.621Z,100353.37
2019-05-18T04:47:32.256Z,100355.80
2019-05-18T04:50:05.722Z,100356.08
2019-05-18T04:52:35.262Z,100354.30
2019-05-18T04:55:06.011Z,100352.66
2019-05-18T04:57:36.674Z,100358.02
2019-05-18T05:00:08.774Z,100368.44
2019-05-18T05:02:39.392Z,100369.06
2019-05-18T05:05:10.313Z,100376.05
2019-05-18T05:07:40.970Z,100365.60
2019-05-18T05:10:11.838Z,100366.75
2019-05-18T05:12:42.464Z,100369.52
2019-05-18T05:15:13.688Z,100374.43
2019-05-18T05:17:44.322Z,100366.53
2019-05-18T05:20:20.140Z,100366.72
2019-05-18T05:22:49.397Z,100368.80
2019-05-18T05:25:20.241Z,100361.36
2019-05-18T05:27:50.909Z,100360.06
2019-05-18T05:30:21.519Z,100341.70
2019-05-18T05:32:52.034Z,100357.51
2019-05-18T05:35:22.563Z,100362.02
2019-05-18T05:37:53.083Z,100357.30
2019-05-18T05:40:23.722Z,100353.64
2019-05-18T05:42:54.246Z,100350.25
2019-05-18T05:45:24.821Z,100358.72
2019-05-18T05:47:55.350Z,100354.63
2019-05-18T05:50:35.090Z,100355.15
2019-05-18T05:52:58.200Z,100360.83
2019-05-18T05:55:28.983Z,100359.33
2019-05-18T05:57:59.632Z,100355.03
2019-05-18T06:00:30.187Z,100356.69
2019-05-18T06:03:00.670Z,100352.89
2019-05-18T06:05:31.340Z,100357.69
2019-05-18T06:08:01.945Z,100353.88
2019-05-18T06:10:32.507Z,100356.54
2019-05-18T06:13:03.066Z,100356.05
2019-05-18T06:15:33.644Z,100357.86
2019-05-18T06:18:04.207Z,100358.08
2019-05-18T06:20:50.130Z,100352.41
2019-05-18T06:23:06.947Z,100353.73
2019-05-18T06:25:37.538Z,100353.73
2019-05-18T06:28:08.060Z,100353.89
2019-05-18T06:30:39.396Z,100355.55
2019-05-18T06:33:09.901Z,100341.61
2019-05-18T06:35:40.414Z,100352.73
2019-05-18T06:38:10.968Z,100355.39
2019-05-18T06:40:41.477Z,100364.85
2019-05-18T06:43:12.036Z,100361.30
2019-05-18T06:45:42.548Z,100366.66
2019-05-18T06:48:13.101Z,100370.97
2019-05-18T06:50:44.775Z,100377.08
2019-05-18T06:53:15.383Z,100373.26
2019-05-18T06:55:45.934Z,100374.43
2019-05-18T06:58:17.062Z,100369.58
2019-05-18T07:00:47.612Z,100367.38
2019-05-18T07:03:18.148Z,100372.84
2019-05-18T07:05:48.582Z,100375.66
2019-05-18T07:08:19.130Z,100377.84
2019-05-18T07:10:49.628Z,100372.05
2019-05-18T07:13:20.109Z,100367.67
2019-05-18T07:15:50.813Z,100377.28
2019-05-18T07:18:21.348Z,100366.48
2019-05-18T07:20:51.884Z,100371.18
2019-05-18T07:23:22.517Z,100376.72
2019-05-18T07:25:53.036Z,100376.09
2019-05-18T07:28:23.577Z,100375.38
2019-05-18T07:30:54.133Z,100373.95
2019-05-18T07:33:24.825Z,100371.41
2019-05-18T07:35:55.424Z,100373.13
2019-05-18T07:38:26.216Z,100366.09
2019-05-18T07:40:57.090Z,100359.53
2019-05-18T07:43:27.851Z,100363.83
2019-05-18T07:46:08.661Z,100357.53
2019-05-18T07:48:38.456Z,100361.33
2019-05-18T07:51:09.242Z,100364.16
2019-05-18T07:53:39.811Z,100369.78
2019-05-18T07:56:10.448Z,100364.86
2019-05-18T07:58:41.146Z,100362.71
2019-05-18T08:01:11.684Z,100365.14
2019-05-18T08:03:42.244Z,100361.22
2019-05-18T08:06:12.781Z,100359.86
2019-05-18T08:08:43.327Z,100356.38
2019-05-18T08:11:13.882Z,100355.44
2019-05-18T08:13:44.425Z,100362.63
2019-05-18T08:16:14.926Z,100352.09
2019-05-18T08:18:45.468Z,100362.00
2019-05-18T08:21:16.174Z,100357.92
2019-05-18T08:23:46.910Z,100360.28
2019-05-18T08:26:17.443Z,100360.28
2019-05-18T08:28:48.008Z,100364.14
2019-05-18T08:31:18.621Z,100367.58
2019-05-18T08:33:49.137Z,100360.73
2019-05-18T08:36:19.751Z,100364.42
2019-05-18T08:38:50.290Z,100362.86
2019-05-18T08:41:20.772Z,100361.56
2019-05-18T08:43:51.267Z,100363.45
2019-05-18T08:46:21.728Z,100352.89
2019-05-18T08:48:52.418Z,100355.80
2019-05-18T08:51:23.087Z,100354.89
2019-05-18T08:53:53.673Z,100358.14
2019-05-18T08:56:24.234Z,100358.81
2019-05-18T08:58:54.730Z,100359.75
2019-05-18T09:01:25.211Z,100358.63
2019-05-18T09:03:55.751Z,100353.94
2019-05-18T09:06:26.302Z,100355.53
2019-05-18T09:08:56.778Z,100349.50
2019-05-18T09:11:27.258Z,100357.94
2019-05-18T09:13:57.833Z,100351.19
2019-05-18T09:16:28.333Z,100354.36
2019-05-18T09:18:58.797Z,100355.30
2019-05-18T09:21:29.430Z,100358.95
2019-05-18T09:24:00.429Z,100357.27
2019-05-18T09:26:31.241Z,100353.09
2019-05-18T09:29:02.112Z,100352.78
2019-05-18T09:31:32.683Z,100349.62
2019-05-18T09:34:03.215Z,100347.85
2019-05-18T09:36:33.782Z,100349.92
2019-05-18T09:39:05.021Z,100345.13
2019-05-18T09:56:51.377Z,100335.23
2019-05-18T09:59:21.850Z,100333.81
2019-05-18T10:01:52.545Z,100329.64
2019-05-18T10:04:23.094Z,100326.23
2019-05-18T10:06:53.700Z,100323.84
2019-05-18T10:09:24.408Z,100325.57
2019-05-18T10:11:55.005Z,100323.36
2019-05-18T10:14:25.624Z,100326.16
2019-05-18T10:16:56.186Z,100320.38
2019-05-18T10:19:26.737Z,100327.77
2019-05-18T10:21:57.328Z,100317.77
2019-05-18T10:24:27.852Z,100317.88
2019-05-18T10:26:58.426Z,100325.58
2019-05-18T10:29:28.994Z,100307.94
2019-05-18T10:31:59.538Z,100315.86
2019-05-18T10:34:30.206Z,100311.12
2019-05-18T10:37:00.700Z,100309.73
2019-05-18T10:39:31.358Z,100313.45
2019-05-18T10:42:01.917Z,100312.78
2019-05-18T10:44:32.454Z,100305.14
2019-05-18T10:47:02.998Z,100303.20
2019-05-18T10:49:33.700Z,100300.61
2019-05-18T10:52:04.764Z,100291.14
2019-05-18T10:54:35.784Z,100294.87
2019-05-18T10:57:06.359Z,100293.18
2019-05-18T10:59:37.695Z,100281.40
2019-05-18T11:02:08.423Z,100286.78
2019-05-18T11:04:39.015Z,100289.27
2019-05-18T11:07:09.547Z,100281.22
2019-05-18T11:09:40.266Z,100280.50
2019-05-18T11:12:11.048Z,100279.20
2019-05-18T11:14:41.595Z,100279.34
2019-05-18T11:17:12.155Z,100278.84
2019-05-18T11:19:42.681Z,100272.48
2019-05-18T11:22:13.450Z,100272.15
2019-05-18T11:24:44.017Z,100270.90
2019-05-18T11:27:14.583Z,100277.31
2019-05-18T11:29:45.124Z,100272.31
2019-05-18T11:32:15.669Z,100269.27
2019-05-18T11:34:46.309Z,100267.06
2019-05-18T11:37:16.846Z,100269.77
2019-05-18T11:39:47.481Z,100266.65
2019-05-18T11:42:18.062Z,100269.61
2019-05-18T11:44:48.626Z,100271.09
2019-05-18T11:47:19.699Z,100269.09
2019-05-18T11:49:50.256Z,100268.27
2019-05-18T11:52:20.808Z,100268.05
2019-05-18T11:54:51.425Z,100266.70
2019-05-18T11:57:22.064Z,100268.72
2019-05-18T11:59:52.701Z,100266.94
2019-05-18T12:02:23.288Z,100260.86
2019-05-18T12:04:53.777Z,100267.09
2019-05-18T12:07:24.317Z,100260.59
2019-05-18T12:09:54.950Z,100262.15
2019-05-18T12:12:25.547Z,100261.75
2019-05-18T12:14:56.190Z,100257.25
2019-05-18T12:17:30.652Z,100250.63
2019-05-18T12:20:01.162Z,100249.99
2019-05-18T12:22:31.731Z,100254.05
2019-05-18T12:25:02.313Z,100257.77
2019-05-18T12:27:33.155Z,100260.53
2019-05-18T12:30:03.777Z,100253.97
2019-05-18T12:32:34.233Z,100256.12
2019-05-18T12:35:05.253Z,100264.22
2019-05-18T12:37:35.804Z,100260.91
2019-05-18T12:40:07.209Z,100258.52
2019-05-18T12:42:37.773Z,100260.97
2019-05-18T12:45:09.752Z,100267.30
2019-05-18T12:47:40.313Z,100265.73
2019-05-18T12:50:13.446Z,100267.04
2019-05-18T12:52:44.037Z,100260.67
2019-05-18T12:55:16.371Z,100262.55
2019-05-18T12:57:46.881Z,100258.03
2019-05-18T13:00:19.012Z,100255.48
2019-05-18T13:02:49.729Z,100247.55
2019-05-18T13:05:20.417Z,100248.16
2019-05-18T13:07:51.003Z,100255.33
2019-05-18T13:10:22.169Z,100252.76
2019-05-18T13:12:52.719Z,100255.20
2019-05-18T13:15:23.791Z,100249.94
2019-05-18T13:17:54.460Z,100246.10
2019-05-18T13:20:25.055Z,100249.48
2019-05-18T13:22:55.598Z,100239.56
2019-05-18T13:25:26.146Z,100234.91
2019-05-18T13:27:58.117Z,100233.19
2019-05-18T13:30:28.998Z,100229.60
2019-05-18T13:32:59.618Z,100225.11
2019-05-18T13:35:30.152Z,100223.58
2019-05-18T13:38:00.974Z,100215.64
2019-05-18T13:40:31.483Z,100219.59
2019-05-18T13:43:02.084Z,100222.20
2019-05-18T13:45:33.292Z,100223.39
2019-05-18T13:48:03.860Z,100219.92
2019-05-18T13:50:34.405Z,100229.36
2019-05-18T13:53:04.965Z,100225.30
2019-05-18T13:55:35.901Z,100228.43
2019-05-18T13:58:06.808Z,100220.55
2019-05-18T14:00:37.437Z,100219.76
2019-05-18T14:03:07.955Z,100222.37
2019-05-18T14:05:38.488Z,100210.52
2019-05-18T14:08:09.081Z,100217.56
2019-05-18T14:10:39.633Z,100202.01
2019-05-18T14:13:10.163Z,100208.91
2019-05-18T14:15:40.754Z,100212.41
2019-05-18T14:18:11.370Z,100216.70
2019-05-18T14:20:41.899Z,100206.00
2019-05-18T14:23:12.565Z,100206.66
2019-05-18T14:25:46.053Z,100210.01
2019-05-18T14:28:15.457Z,100203.28
2019-05-18T14:30:46.094Z,100205.47
2019-05-18T14:33:16.810Z,100210.05
2019-05-18T14:35:47.411Z,100206.56
2019-05-18T14:38:17.978Z,100210.78
2019-05-18T14:40:48.527Z,100210.43
2019-05-18T14:43:19.071Z,100212.96
2019-05-18T14:45:49.761Z,100214.58
2019-05-18T14:48:20.438Z,100209.77
2019-05-18T14:50:50.930Z,100203.48
2019-05-18T14:53:21.581Z,100204.63
2019-05-18T14:55:52.183Z,100193.06
2019-05-18T14:58:22.784Z,100202.45
2019-05-18T15:00:55.049Z,100188.24
2019-05-18T15:03:25.725Z,100201.14
2019-05-18T15:05:56.260Z,100198.12
2019-05-18T15:08:27.245Z,100196.39
2019-05-18T15:10:57.749Z,100210.38
2019-05-18T15:13:28.290Z,100205.47
2019-05-18T15:15:58.843Z,100196.69
2019-05-18T15:18:29.487Z,100188.18
2019-05-18T15:20:59.974Z,100187.77
2019-05-18T15:23:30.678Z,100172.61
2019-05-18T15:26:01.322Z,100171.97
2019-05-18T15:28:32.025Z,100176.00
2019-05-18T15:31:02.736Z,100183.45
2019-05-18T15:33:33.274Z,100174.97
2019-05-18T15:36:03.849Z,100176.98
2019-05-18T15:38:34.445Z,100179.00
2019-05-18T15:41:04.875Z,100180.54
2019-05-18T15:43:35.357Z,100183.17
2019-05-18T15:46:05.855Z,100187.09
2019-05-18T15:48:36.408Z,100184.33
2019-05-18T15:51:06.904Z,100186.53
2019-05-18T15:53:37.403Z,100180.84
2019-05-18T15:56:07.865Z,100184.27
2019-05-18T15:58:38.388Z,100192.34
2019-05-18T16:01:08.906Z,100184.30
2019-05-18T16:03:39.399Z,100187.86
2019-05-18T16:06:09.867Z,100188.12
2019-05-18T16:08:40.382Z,100186.06
2019-05-18T16:11:10.856Z,100186.15
2019-05-18T16:13:41.362Z,100182.23
2019-05-18T16:16:11.840Z,100183.19
2019-05-18T16:18:42.685Z,100178.55
2019-05-18T16:21:13.175Z,100174.53
2019-05-18T16:23:43.662Z,100175.52
2019-05-18T16:26:21.702Z,100179.45
2019-05-18T16:28:46.381Z,100173.95
2019-05-18T16:31:16.865Z,100181.95
2019-05-18T16:33:47.354Z,100179.23
2019-05-18T16:36:17.807Z,100182.88
2019-05-18T16:38:48.346Z,100177.72
2019-05-18T16:41:21.460Z,100168.80
2019-05-18T16:43:51.056Z,100175.17
2019-05-18T16:46:21.652Z,100179.23
2019-05-18T16:48:52.110Z,100177.59
2019-05-18T16:51:22.568Z,100170.60
2019-05-18T16:53:53.110Z,100174.96
2019-05-18T16:56:34.510Z,100170.98
2019-05-18T16:58:55.788Z,100178.47
2019-05-18T17:01:26.285Z,100174.30
2019-05-18T17:03:56.820Z,100167.52
2019-05-18T17:06:27.385Z,100180.66
2019-05-18T17:08:57.992Z,100172.80
2019-05-18T17:11:28.499Z,100177.23
2019-05-18T17:13:58.971Z,100183.69
2019-05-18T17:16:29.493Z,100190.55
2019-05-18T17:18:59.962Z,100188.33
2019-05-18T17:21:30.436Z,100193.83
2019-05-18T17:24:00.932Z,100194.71
2019-05-18T17:26:31.546Z,100201.10
2019-05-18T17:29:02.048Z,100210.83
2019-05-18T17:31:32.634Z,100190.98
2019-05-18T17:34:03.079Z,100196.09
2019-05-18T17:36:33.758Z,100197.20
2019-05-18T17:39:05.520Z,100194.02
2019-05-18T17:41:36.010Z,100202.49
2019-05-18T17:44:06.495Z,100202.80
2019-05-18T17:46:37.000Z,100201.35
2019-05-18T17:49:07.526Z,100206.61
2019-05-18T17:51:38.039Z,100208.16
2019-05-18T17:54:08.600Z,100212.07
2019-05-18T17:56:39.074Z,100205.60
2019-05-18T17:59:09.590Z,100203.32
2019-05-18T18:01:40.119Z,100210.83
2019-05-18T18:04:10.605Z,100212.30
2019-05-18T18:06:41.069Z,100212.28
2019-05-18T18:09:11.587Z,100212.38
2019-05-18T18:11:42.080Z,100201.53
2019-05-18T18:14:12.566Z,100206.49
2019-05-18T18:16:43.076Z,100208.22
2019-05-18T18:19:13.567Z,100203.05
2019-05-18T18:21:44.053Z,100204.34
2019-05-18T18:24:14.658Z,100210.39
2019-05-18T18:26:45.129Z,100212.34
2019-05-18T18:29:15.702Z,100209.17
2019-05-18T18:31:46.303Z,100201.91
2019-05-18T18:34:16.841Z,100205.59
2019-05-18T18:36:47.553Z,100205.17
2019-05-18T18:39:18.115Z,100208.16
2019-05-18T18:41:48.634Z,100210.70
2019-05-18T18:44:19.205Z,100209.91
2019-05-18T18:46:49.719Z,100211.52
2019-05-18T18:49:20.170Z,100208.22
2019-05-18T18:51:50.674Z,100204.67
2019-05-18T18:54:21.218Z,100215.91
2019-05-18T18:56:51.716Z,100215.75
2019-05-18T18:59:22.257Z,100217.34
2019-05-18T19:01:52.769Z,100216.16
2019-05-18T19:04:23.270Z,100215.52
2019-05-18T19:06:53.871Z,100215.92
2019-05-18T19:09:24.382Z,100215.09
2019-05-18T19:11:54.929Z,100223.03
2019-05-18T19:14:25.440Z,100221.05
2019-05-18T19:16:56.002Z,100225.88
2019-05-18T19:19:26.475Z,100227.66
2019-05-18T19:21:56.954Z,100227.92
2019-05-18T19:24:27.513Z,100236.28
2019-05-18T19:26:58.044Z,100230.44
2019-05-18T19:29:28.582Z,100232.27
2019-05-18T19:31:59.146Z,100229.86
2019-05-18T19:34:29.652Z,100232.00
2019-05-18T19:37:00.146Z,100236.88
2019-05-18T19:39:30.674Z,100237.11
2019-05-18T19:42:01.260Z,100241.36
2019-05-18T19:44:31.699Z,100239.98
2019-05-18T19:47:02.268Z,100246.12
2019-05-18T19:49:32.817Z,100245.05
2019-05-18T19:52:03.281Z,100248.01
2019-05-18T19:54:33.870Z,100250.01
2019-05-18T19:57:04.376Z,100249.63
2019-05-18T19:59:34.839Z,100248.84
2019-05-18T20:02:05.652Z,100244.39
2019-05-18T20:04:36.145Z,100245.32
2019-05-18T20:07:06.635Z,100249.64
2019-05-18T20:09:37.175Z,100257.42
2019-05-18T20:12:07.661Z,100252.19
2019-05-18T20:14:38.149Z,100257.35
2019-05-18T20:17:08.713Z,100249.77
2019-05-18T20:19:39.949Z,100254.59
2019-05-18T20:22:10.664Z,100251.30
2019-05-18T20:24:41.281Z,100242.55
2019-05-18T20:27:11.746Z,100250.72
2019-05-18T20:29:42.280Z,100251.61
2019-05-18T20:32:12.883Z,100250.52
2019-05-18T20:34:43.363Z,100246.16
2019-05-18T20:37:13.909Z,100244.73
2019-05-18T20:39:44.365Z,100245.92
2019-05-18T20:42:14.877Z,100248.58
2019-05-18T20:44:45.404Z,100253.91
2019-05-18T20:47:15.904Z,100253.63
2019-05-18T20:49:46.435Z,100250.97
2019-05-18T20:52:16.913Z,100249.17
2019-05-18T20:54:47.420Z,100256.36
2019-05-18T20:57:17.929Z,100254.49
2019-05-18T20:59:48.422Z,100253.86
2019-05-18T21:02:18.916Z,100249.52
2019-05-18T21:04:49.517Z,100249.04
2019-05-18T21:07:19.997Z,100252.39
2019-05-18T21:09:50.515Z,100245.42
2019-05-18T21:12:21.012Z,100252.72
2019-05-18T21:14:51.514Z,100255.88
2019-05-18T21:17:22.066Z,100255.03
2019-05-18T21:19:52.521Z,100256.55
2019-05-18T21:22:23.021Z,100255.55
2019-05-18T21:24:53.609Z,100248.10
2019-05-18T21:27:24.094Z,100247.45
2019-05-18T21:29:54.565Z,100250.27
2019-05-18T21:32:25.057Z,100251.11
2019-05-18T21:34:55.589Z,100251.75
2019-05-18T21:37:26.081Z,100253.76
2019-05-18T21:39:56.594Z,100253.73
2019-05-18T21:42:27.146Z,100252.41
2019-05-18T21:44:57.637Z,100254.26
2019-05-18T21:47:28.191Z,100256.89
2019-05-18T21:49:58.892Z,100252.75
2019-05-18T21:52:33.277Z,100255.41
2019-05-18T21:55:03.827Z,100253.91
2019-05-18T21:57:34.355Z,100252.11
2019-05-18T22:00:06.660Z,100253.09
2019-05-18T22:02:37.300Z,100250.28
2019-05-18T22:05:08.505Z,100248.77
2019-05-18T22:07:39.120Z,100247.79
2019-05-18T22:10:24.906Z,100253.08
2019-05-18T22:12:43.554Z,100250.77
2019-05-18T22:15:14.659Z,100246.78
2019-05-18T22:18:03.486Z,100247.60
2019-05-18T22:20:39.867Z,100252.08
2019-05-18T22:23:08.605Z,100255.09
2019-05-18T22:25:39.152Z,100251.06
2019-05-18T22:28:09.638Z,100241.76
2019-05-18T22:30:41.275Z,100237.45
2019-05-18T22:33:11.785Z,100234.47
2019-05-18T22:35:42.283Z,100235.47
2019-05-18T22:38:12.791Z,100239.27
2019-05-18T22:40:43.320Z,100238.27
2019-05-18T22:43:13.791Z,100240.25
2019-05-18T22:45:44.312Z,100239.11
2019-05-18T22:48:14.851Z,100239.77
2019-05-18T22:50:45.473Z,100236.77
2019-05-18T22:53:16.017Z,100235.43
2019-05-18T22:55:46.561Z,100235.25
2019-05-18T22:58:17.059Z,100240.37
2019-05-18T23:00:47.566Z,100240.48
2019-05-18T23:03:18.201Z,100241.06
2019-05-18T23:05:48.786Z,100235.67
2019-05-18T23:08:19.300Z,100226.72
2019-05-18T23:10:49.786Z,100231.68
2019-05-18T23:13:20.297Z,100232.01
2019-05-18T23:15:50.900Z,100228.22
2019-05-18T23:18:21.734Z,100229.31
2019-05-18T23:20:52.299Z,100229.47
2019-05-18T23:23:22.828Z,100235.59
2019-05-18T23:25:53.378Z,100229.42
2019-05-18T23:28:23.880Z,100227.92
2019-05-18T23:30:54.362Z,100224.99
2019-05-18T23:33:26.508Z,100221.99
2019-05-18T23:35:56.996Z,100224.30
2019-05-18T23:38:27.562Z,100222.33
2019-05-18T23:40:58.045Z,100222.98
2019-05-18T23:43:28.944Z,100225.19
2019-05-18T23:45:59.556Z,100221.97
2019-05-18T23:48:30.095Z,100222.02
2019-05-18T23:51:00.568Z,100217.34
2019-05-18T23:53:31.753Z,100215.23
2019-05-18T23:56:02.702Z,100221.69
2019-05-18T23:58:33.352Z,100215.02
